sensor_id;sensor_type;location;lat;lon;timestamp;pressure;altitude;pressure_sealevel;temperature;humidity
37068;BME280;22982;42.848;25.468;2022-09-02T00:02:19;95967.31;;;17.31;100.00
37068;BME280;22982;42.848;25.468;2022-09-02T00:07:24;95955.91;;;17.20;100.00
37068;BME280;22982;42.848;25.468;2022-09-02T00:12:26;95959.94;;;17.05;100.00
37068;BME280;22982;42.848;25.468;2022-09-02T00:17:28;95943.78;;;17.08;100.00
37068;BME280;22982;42.848;25.468;2022-09-02T00:22:30;95938.47;;;16.79;100.00
37068;BME280;22982;42.848;25.468;2022-09-02T00:27:33;95951.59;;;16.90;100.00
37068;BME280;22982;42.848;25.468;2022-09-02T00:32:35;95951.34;;;16.93;100.00
37068;BME280;22982;42.848;25.468;2022-09-02T00:37:37;95947.16;;;17.00;100.00
37068;BME280;22982;42.848;25.468;2022-09-02T00:42:40;95949.50;;;17.13;100.00
37068;BME280;22982;42.848;25.468;2022-09-02T00:47:43;95937.38;;;17.20;100.00
37068;BME280;22982;42.848;25.468;2022-09-02T00:53:02;95943.09;;;17.06;100.00
37068;BME280;22982;42.848;25.468;2022-09-02T00:58:14;95942.97;;;17.08;100.00
37068;BME280;22982;42.848;25.468;2022-09-02T01:03:20;95932.47;;;16.67;100.00
37068;BME280;22982;42.848;25.468;2022-09-02T01:08:25;95959.41;;;17.01;100.00
37068;BME280;22982;42.848;25.468;2022-09-02T01:13:30;95964.78;;;16.71;100.00
37068;BME280;22982;42.848;25.468;2022-09-02T01:18:37;95945.13;;;16.63;100.00
37068;BME280;22982;42.848;25.468;2022-09-02T01:23:39;95949.88;;;16.50;100.00
37068;BME280;22982;42.848;25.468;2022-09-02T01:28:43;95947.25;;;16.70;100.00
37068;BME280;22982;42.848;25.468;2022-09-02T01:33:46;95952.53;;;16.70;100.00
37068;BME280;22982;42.848;25.468;2022-09-02T01:38:48;95946.69;;;16.76;100.00
37068;BME280;22982;42.848;25.468;2022-09-02T01:43:50;95954.91;;;16.82;100.00
37068;BME280;22982;42.848;25.468;2022-09-02T01:48:53;95962.16;;;16.71;100.00
37068;BME280;22982;42.848;25.468;2022-09-02T01:53:56;95948.47;;;16.65;100.00
37068;BME280;22982;42.848;25.468;2022-09-02T01:58:59;95946.56;;;16.68;100.00
37068;BME280;22982;42.848;25.468;2022-09-02T02:04:05;95945.13;;;16.63;100.00
37068;BME280;22982;42.848;25.468;2022-09-02T02:09:17;95951.28;;;16.74;100.00
37068;BME280;22982;42.848;25.468;2022-09-02T02:14:20;95943.94;;;16.87;100.00
37068;BME280;22982;42.848;25.468;2022-09-02T02:19:24;95955.31;;;16.78;100.00
37068;BME280;22982;42.848;25.468;2022-09-02T02:24:26;95944.78;;;16.88;100.00
37068;BME280;22982;42.848;25.468;2022-09-02T02:29:29;95948.66;;;17.03;100.00
37068;BME280;22982;42.848;25.468;2022-09-02T02:34:33;95933.75;;;17.02;100.00
37068;BME280;22982;42.848;25.468;2022-09-02T02:39:40;95934.00;;;16.79;100.00
37068;BME280;22982;42.848;25.468;2022-09-02T02:44:44;95944.38;;;17.02;100.00
37068;BME280;22982;42.848;25.468;2022-09-02T02:49:47;95915.59;;;16.78;100.00
37068;BME280;22982;42.848;25.468;2022-09-02T02:54:50;95918.44;;;16.86;100.00
37068;BME280;22982;42.848;25.468;2022-09-02T02:59:53;95929.53;;;16.80;100.00
37068;BME280;22982;42.848;25.468;2022-09-02T03:04:55;95926.75;;;16.81;100.00
37068;BME280;22982;42.848;25.468;2022-09-02T03:09:58;95935.56;;;17.01;100.00
37068;BME280;22982;42.848;25.468;2022-09-02T03:15:01;95923.59;;;16.97;100.00
37068;BME280;22982;42.848;25.468;2022-09-02T03:20:04;95930.53;;;16.79;100.00
37068;BME280;22982;42.848;25.468;2022-09-02T03:25:13;95928.00;;;16.77;100.00
37068;BME280;22982;42.848;25.468;2022-09-02T03:30:25;95946.28;;;17.19;100.00
37068;BME280;22982;42.848;25.468;2022-09-02T03:35:30;95940.69;;;17.32;100.00
37068;BME280;22982;42.848;25.468;2022-09-02T03:40:33;95955.56;;;17.53;100.00
37068;BME280;22982;42.848;25.468;2022-09-02T03:45:36;95964.31;;;17.63;100.00
37068;BME280;22982;42.848;25.468;2022-09-02T03:50:44;95969.47;;;17.65;100.00
37068;BME280;22982;42.848;25.468;2022-09-02T03:55:53;95948.28;;;17.65;100.00
37068;BME280;22982;42.848;25.468;2022-09-02T04:00:59;95954.47;;;17.46;100.00
37068;BME280;22982;42.848;25.468;2022-09-02T04:06:02;95955.69;;;17.61;100.00
37068;BME280;22982;42.848;25.468;2022-09-02T04:11:07;95966.50;;;17.77;100.00
37068;BME280;22982;42.848;25.468;2022-09-02T04:16:16;95962.47;;;17.93;100.00
37068;BME280;22982;42.848;25.468;2022-09-02T04:21:20;95966.59;;;18.05;100.00
37068;BME280;22982;42.848;25.468;2022-09-02T04:26:22;95966.34;;;18.26;100.00
37068;BME280;22982;42.848;25.468;2022-09-02T04:31:28;95985.66;;;18.46;100.00
37068;BME280;22982;42.848;25.468;2022-09-02T04:36:33;95984.56;;;18.67;100.00
37068;BME280;22982;42.848;25.468;2022-09-02T04:41:40;95956.81;;;18.79;100.00
37068;BME280;22982;42.848;25.468;2022-09-02T04:46:46;95972.59;;;18.99;100.00
37068;BME280;22982;42.848;25.468;2022-09-02T04:51:53;95974.97;;;19.20;100.00
37068;BME280;22982;42.848;25.468;2022-09-02T04:56:57;95973.97;;;19.39;100.00
37068;BME280;22982;42.848;25.468;2022-09-02T05:02:02;95980.22;;;19.74;100.00
37068;BME280;22982;42.848;25.468;2022-09-02T05:07:06;95978.81;;;19.87;100.00
37068;BME280;22982;42.848;25.468;2022-09-02T05:12:15;95975.34;;;19.95;100.00
37068;BME280;22982;42.848;25.468;2022-09-02T05:17:23;95991.03;;;20.06;100.00
37068;BME280;22982;42.848;25.468;2022-09-02T05:22:27;95983.72;;;20.08;100.00
37068;BME280;22982;42.848;25.468;2022-09-02T05:27:33;95970.66;;;20.66;100.00
37068;BME280;22982;42.848;25.468;2022-09-02T05:32:36;95986.09;;;21.21;100.00
37068;BME280;22982;42.848;25.468;2022-09-02T05:37:40;95957.09;;;21.35;100.00
37068;BME280;22982;42.848;25.468;2022-09-02T05:42:43;95971.94;;;21.37;100.00
37068;BME280;22982;42.848;25.468;2022-09-02T05:47:49;95976.25;;;21.38;100.00
37068;BME280;22982;42.848;25.468;2022-09-02T05:52:52;95981.63;;;21.47;100.00
37068;BME280;22982;42.848;25.468;2022-09-02T05:57:56;95971.56;;;22.77;100.00
37068;BME280;22982;42.848;25.468;2022-09-02T06:02:58;95994.16;;;23.06;100.00
37068;BME280;22982;42.848;25.468;2022-09-02T06:08:06;95971.56;;;23.31;100.00
37068;BME280;22982;42.848;25.468;2022-09-02T06:13:10;95979.25;;;23.11;100.00
37068;BME280;22982;42.848;25.468;2022-09-02T06:18:12;95979.97;;;23.43;95.85
37068;BME280;22982;42.848;25.468;2022-09-02T06:23:19;95985.09;;;23.53;100.00
37068;BME280;22982;42.848;25.468;2022-09-02T06:28:22;95984.47;;;23.89;100.00
37068;BME280;22982;42.848;25.468;2022-09-02T06:33:26;95979.59;;;23.93;100.00
37068;BME280;22982;42.848;25.468;2022-09-02T06:38:28;95971.25;;;24.17;91.74
37068;BME280;22982;42.848;25.468;2022-09-02T06:43:31;95974.09;;;25.12;84.23
37068;BME280;22982;42.848;25.468;2022-09-02T06:48:56;95990.44;;;25.17;94.42
37068;BME280;22982;42.848;25.468;2022-09-02T06:54:08;96003.69;;;24.07;86.80
37068;BME280;22982;42.848;25.468;2022-09-02T06:59:17;96006.34;;;23.55;88.56
37068;BME280;22982;42.848;25.468;2022-09-02T07:04:23;95989.94;;;24.11;87.64
37068;BME280;22982;42.848;25.468;2022-09-02T07:09:48;95978.25;;;24.78;83.12
37068;BME280;22982;42.848;25.468;2022-09-02T07:14:52;95994.03;;;25.02;79.80
37068;BME280;22982;42.848;25.468;2022-09-02T07:20:05;95986.06;;;27.87;66.61
37068;BME280;22982;42.848;25.468;2022-09-02T07:25:16;95994.22;;;28.72;62.49
37068;BME280;22982;42.848;25.468;2022-09-02T07:30:20;95971.06;;;28.51;60.95
37068;BME280;22982;42.848;25.468;2022-09-02T07:35:28;95988.75;;;28.00;63.07
37068;BME280;22982;42.848;25.468;2022-09-02T07:40:31;95982.34;;;27.61;61.94
37068;BME280;22982;42.848;25.468;2022-09-02T07:45:34;96006.88;;;26.28;70.00
37068;BME280;22982;42.848;25.468;2022-09-02T07:50:37;96009.50;;;26.50;70.00
37068;BME280;22982;42.848;25.468;2022-09-02T07:55:44;96017.81;;;25.49;73.52
37068;BME280;22982;42.848;25.468;2022-09-02T08:00:48;96002.16;;;25.52;73.59
37068;BME280;22982;42.848;25.468;2022-09-02T08:05:52;96014.44;;;26.11;72.13
37068;BME280;22982;42.848;25.468;2022-09-02T08:10:54;96013.88;;;26.23;70.88
37068;BME280;22982;42.848;25.468;2022-09-02T08:15:57;95998.50;;;25.60;71.93
37068;BME280;22982;42.848;25.468;2022-09-02T08:20:59;96025.88;;;25.27;74.72
37068;BME280;22982;42.848;25.468;2022-09-02T08:26:02;96017.69;;;24.99;76.99
37068;BME280;22982;42.848;25.468;2022-09-02T08:31:06;95998.13;;;25.63;75.68
37068;BME280;22982;42.848;25.468;2022-09-02T08:36:09;96010.47;;;25.57;73.12
37068;BME280;22982;42.848;25.468;2022-09-02T08:41:23;95997.56;;;25.96;72.43
37068;BME280;22982;42.848;25.468;2022-09-02T08:46:27;95997.22;;;25.56;73.67
37068;BME280;22982;42.848;25.468;2022-09-02T08:51:46;95991.56;;;25.66;73.42
37068;BME280;22982;42.848;25.468;2022-09-02T08:56:55;95970.38;;;25.56;73.29
37068;BME280;22982;42.848;25.468;2022-09-02T09:12:58;95977.59;;;26.05;71.79
37068;BME280;22982;42.848;25.468;2022-09-02T09:18:06;95967.75;;;25.91;71.54
37068;BME280;22982;42.848;25.468;2022-09-02T09:23:31;95934.66;;;26.53;67.67
37068;BME280;22982;42.848;25.468;2022-09-02T09:28:46;95980.00;;;26.22;70.24
37068;BME280;22982;42.848;25.468;2022-09-02T09:34:01;95982.09;;;26.68;67.70
37068;BME280;22982;42.848;25.468;2022-09-02T09:39:34;95987.38;;;25.63;69.53
37068;BME280;22982;42.848;25.468;2022-09-02T09:44:46;95984.84;;;24.97;72.84
37068;BME280;22982;42.848;25.468;2022-09-02T09:50:11;95990.94;;;23.72;83.30
37068;BME280;22982;42.848;25.468;2022-09-02T09:55:19;95983.78;;;23.03;88.75
37068;BME280;22982;42.848;25.468;2022-09-02T10:00:32;95996.53;;;22.61;91.07
37068;BME280;22982;42.848;25.468;2022-09-02T10:05:38;96043.13;;;21.53;100.00
37068;BME280;22982;42.848;25.468;2022-09-02T10:11:04;96054.56;;;20.27;100.00
37068;BME280;22982;42.848;25.468;2022-09-02T10:26:49;95998.69;;;20.87;100.00
37068;BME280;22982;42.848;25.468;2022-09-02T10:43:04;95963.94;;;23.43;100.00
37068;BME280;22982;42.848;25.468;2022-09-02T10:48:17;95975.31;;;23.83;100.00
37068;BME280;22982;42.848;25.468;2022-09-02T10:53:33;95968.47;;;23.96;100.00
37068;BME280;22982;42.848;25.468;2022-09-02T11:09:12;95955.09;;;23.96;100.00
37068;BME280;22982;42.848;25.468;2022-09-02T11:14:23;95956.94;;;24.10;100.00
37068;BME280;22982;42.848;25.468;2022-09-02T11:24:40;95953.47;;;25.55;95.85
37068;BME280;22982;42.848;25.468;2022-09-02T11:29:59;95962.16;;;25.57;93.99
37068;BME280;22982;42.848;25.468;2022-09-02T11:35:06;95932.31;;;26.37;92.18
37068;BME280;22982;42.848;25.468;2022-09-02T11:40:17;95928.81;;;26.43;89.05
37068;BME280;22982;42.848;25.468;2022-09-02T12:01:36;95984.53;;;22.88;100.00
37068;BME280;22982;42.848;25.468;2022-09-02T12:22:46;95973.88;;;18.77;100.00
37068;BME280;22982;42.848;25.468;2022-09-02T12:27:48;95984.75;;;18.83;100.00
37068;BME280;22982;42.848;25.468;2022-09-02T12:37:55;95965.94;;;18.94;100.00
37068;BME280;22982;42.848;25.468;2022-09-02T12:43:00;95958.47;;;19.34;100.00
37068;BME280;22982;42.848;25.468;2022-09-02T12:48:14;95946.97;;;19.78;100.00
37068;BME280;22982;42.848;25.468;2022-09-02T12:58:38;95926.88;;;20.18;100.00
37068;BME280;22982;42.848;25.468;2022-09-02T13:31:20;95967.94;;;22.22;100.00
37068;BME280;22982;42.848;25.468;2022-09-02T13:36:33;95953.34;;;22.02;100.00
37068;BME280;22982;42.848;25.468;2022-09-02T13:41:36;95968.44;;;22.34;100.00
37068;BME280;22982;42.848;25.468;2022-09-02T13:46:47;95967.31;;;22.60;100.00
37068;BME280;22982;42.848;25.468;2022-09-02T13:51:53;95953.00;;;22.52;100.00
37068;BME280;22982;42.848;25.468;2022-09-02T13:56:57;95943.91;;;22.39;100.00
37068;BME280;22982;42.848;25.468;2022-09-02T14:02:29;95963.97;;;22.66;100.00
37068;BME280;22982;42.848;25.468;2022-09-02T14:07:39;95969.63;;;22.31;100.00
37068;BME280;22982;42.848;25.468;2022-09-02T14:12:42;95935.56;;;22.33;100.00
37068;BME280;22982;42.848;25.468;2022-09-02T14:23:15;95962.63;;;22.30;100.00
37068;BME280;22982;42.848;25.468;2022-09-02T14:28:20;95993.69;;;22.31;100.00
37068;BME280;22982;42.848;25.468;2022-09-02T14:33:37;95990.31;;;22.29;100.00
37068;BME280;22982;42.848;25.468;2022-09-02T14:44:09;95952.03;;;21.97;100.00
37068;BME280;22982;42.848;25.468;2022-09-02T14:49:25;95961.72;;;21.82;100.00
37068;BME280;22982;42.848;25.468;2022-09-02T14:54:49;95964.06;;;21.85;100.00
37068;BME280;22982;42.848;25.468;2022-09-02T14:59:52;95982.91;;;21.92;100.00
37068;BME280;22982;42.848;25.468;2022-09-02T15:04:57;95986.72;;;21.89;100.00
37068;BME280;22982;42.848;25.468;2022-09-02T15:10:00;95970.59;;;21.66;100.00
37068;BME280;22982;42.848;25.468;2022-09-02T15:15:03;95944.06;;;21.73;100.00
37068;BME280;22982;42.848;25.468;2022-09-02T15:20:05;95947.09;;;21.62;100.00
37068;BME280;22982;42.848;25.468;2022-09-02T15:25:11;95953.56;;;21.84;100.00
37068;BME280;22982;42.848;25.468;2022-09-02T15:30:15;95920.72;;;21.75;100.00
37068;BME280;22982;42.848;25.468;2022-09-02T15:35:18;95942.28;;;22.13;100.00
37068;BME280;22982;42.848;25.468;2022-09-02T15:40:20;95940.81;;;22.10;100.00
37068;BME280;22982;42.848;25.468;2022-09-02T15:45:23;95926.25;;;22.21;100.00
37068;BME280;22982;42.848;25.468;2022-09-02T15:50:25;95930.72;;;21.81;100.00
37068;BME280;22982;42.848;25.468;2022-09-02T15:55:32;95904.94;;;21.49;100.00
37068;BME280;22982;42.848;25.468;2022-09-02T16:00:35;95945.69;;;21.90;100.00
37068;BME280;22982;42.848;25.468;2022-09-02T16:05:40;95921.06;;;21.55;100.00
37068;BME280;22982;42.848;25.468;2022-09-02T16:10:43;95927.44;;;21.46;100.00
37068;BME280;22982;42.848;25.468;2022-09-02T16:15:46;95930.25;;;21.45;100.00
37068;BME280;22982;42.848;25.468;2022-09-02T16:20:49;95929.28;;;21.46;100.00
37068;BME280;22982;42.848;25.468;2022-09-02T16:26:15;95966.25;;;21.57;100.00
37068;BME280;22982;42.848;25.468;2022-09-02T16:31:19;95953.75;;;21.16;100.00
37068;BME280;22982;42.848;25.468;2022-09-02T16:36:23;95957.91;;;21.02;100.00
37068;BME280;22982;42.848;25.468;2022-09-02T16:41:32;95952.72;;;20.76;100.00
37068;BME280;22982;42.848;25.468;2022-09-02T16:46:37;95978.84;;;20.81;100.00
37068;BME280;22982;42.848;25.468;2022-09-02T16:51:50;95973.38;;;20.74;100.00
37068;BME280;22982;42.848;25.468;2022-09-02T16:56:59;95991.34;;;20.80;100.00
37068;BME280;22982;42.848;25.468;2022-09-02T17:02:02;96011.81;;;20.72;100.00
37068;BME280;22982;42.848;25.468;2022-09-02T17:07:04;96009.88;;;20.56;100.00
37068;BME280;22982;42.848;25.468;2022-09-02T17:12:06;96012.63;;;20.64;100.00
37068;BME280;22982;42.848;25.468;2022-09-02T17:17:09;96027.44;;;20.67;100.00
37068;BME280;22982;42.848;25.468;2022-09-02T17:22:15;96010.41;;;20.17;100.00
37068;BME280;22982;42.848;25.468;2022-09-02T17:27:18;96039.53;;;20.53;100.00
37068;BME280;22982;42.848;25.468;2022-09-02T17:32:20;96057.91;;;20.64;100.00
37068;BME280;22982;42.848;25.468;2022-09-02T17:37:23;96064.13;;;20.73;100.00
37068;BME280;22982;42.848;25.468;2022-09-02T17:42:27;96069.56;;;20.63;100.00
37068;BME280;22982;42.848;25.468;2022-09-02T17:47:29;96067.56;;;20.65;100.00
37068;BME280;22982;42.848;25.468;2022-09-02T17:52:32;96048.81;;;20.83;100.00
37068;BME280;22982;42.848;25.468;2022-09-02T17:58:01;96062.38;;;20.98;100.00
37068;BME280;22982;42.848;25.468;2022-09-02T18:03:13;96054.56;;;21.21;100.00
37068;BME280;22982;42.848;25.468;2022-09-02T18:08:37;96053.75;;;21.12;100.00
37068;BME280;22982;42.848;25.468;2022-09-02T18:45:53;96025.63;;;20.33;100.00
37068;BME280;22982;42.848;25.468;2022-09-02T18:50:59;96041.78;;;20.65;100.00
37068;BME280;22982;42.848;25.468;2022-09-02T18:56:08;96025.44;;;20.34;100.00
37068;BME280;22982;42.848;25.468;2022-09-02T19:01:21;96026.84;;;20.46;100.00
37068;BME280;22982;42.848;25.468;2022-09-02T19:06:26;96015.28;;;20.64;100.00
37068;BME280;22982;42.848;25.468;2022-09-02T19:11:35;96012.22;;;21.01;100.00
37068;BME280;22982;42.848;25.468;2022-09-02T19:16:38;96008.31;;;20.79;100.00
37068;BME280;22982;42.848;25.468;2022-09-02T19:21:43;96014.88;;;20.51;100.00
37068;BME280;22982;42.848;25.468;2022-09-02T19:26:56;95994.06;;;20.46;100.00
37068;BME280;22982;42.848;25.468;2022-09-02T19:32:00;96013.81;;;20.70;100.00
37068;BME280;22982;42.848;25.468;2022-09-02T19:37:04;95999.31;;;20.64;100.00
37068;BME280;22982;42.848;25.468;2022-09-02T19:42:09;96027.56;;;20.57;100.00
37068;BME280;22982;42.848;25.468;2022-09-02T19:47:13;95995.03;;;20.45;100.00
37068;BME280;22982;42.848;25.468;2022-09-02T19:52:40;96006.13;;;20.24;100.00
37068;BME280;22982;42.848;25.468;2022-09-02T19:57:44;96020.47;;;20.39;100.00
37068;BME280;22982;42.848;25.468;2022-09-02T20:02:46;96016.75;;;20.24;100.00
37068;BME280;22982;42.848;25.468;2022-09-02T20:07:51;96019.78;;;19.95;100.00
37068;BME280;22982;42.848;25.468;2022-09-02T20:12:54;95995.16;;;19.75;100.00
37068;BME280;22982;42.848;25.468;2022-09-02T20:18:04;96044.41;;;20.31;100.00
37068;BME280;22982;42.848;25.468;2022-09-02T20:23:10;96019.44;;;20.32;100.00
37068;BME280;22982;42.848;25.468;2022-09-02T20:28:23;96023.66;;;20.77;100.00
37068;BME280;22982;42.848;25.468;2022-09-02T20:33:32;96037.00;;;20.94;100.00
37068;BME280;22982;42.848;25.468;2022-09-02T20:38:58;96024.31;;;20.79;100.00
37068;BME280;22982;42.848;25.468;2022-09-02T20:44:22;96074.16;;;20.95;100.00
37068;BME280;22982;42.848;25.468;2022-09-02T20:49:42;96067.41;;;21.26;100.00
37068;BME280;22982;42.848;25.468;2022-09-02T20:55:10;96047.34;;;20.89;100.00
37068;BME280;22982;42.848;25.468;2022-09-02T21:00:16;96047.00;;;20.83;100.00
37068;BME280;22982;42.848;25.468;2022-09-02T21:05:37;96049.94;;;20.72;100.00
37068;BME280;22982;42.848;25.468;2022-09-02T21:10:46;96050.94;;;20.71;100.00
37068;BME280;22982;42.848;25.468;2022-09-02T21:15:54;96076.25;;;20.75;100.00
37068;BME280;22982;42.848;25.468;2022-09-02T21:21:07;96058.34;;;20.25;100.00
37068;BME280;22982;42.848;25.468;2022-09-02T21:26:23;96060.72;;;20.02;100.00
37068;BME280;22982;42.848;25.468;2022-09-02T21:37:14;96052.03;;;19.74;100.00
37068;BME280;22982;42.848;25.468;2022-09-02T21:48:26;96067.81;;;19.93;100.00
37068;BME280;22982;42.848;25.468;2022-09-02T21:53:46;96068.28;;;19.70;100.00
37068;BME280;22982;42.848;25.468;2022-09-02T22:04:28;96039.25;;;19.77;100.00
37068;BME280;22982;42.848;25.468;2022-09-02T22:09:33;96042.50;;;19.89;100.00
37068;BME280;22982;42.848;25.468;2022-09-02T22:14:54;96044.91;;;19.20;100.00
37068;BME280;22982;42.848;25.468;2022-09-02T22:20:01;96040.03;;;18.98;100.00
37068;BME280;22982;42.848;25.468;2022-09-02T22:25:06;96055.53;;;19.20;100.00
37068;BME280;22982;42.848;25.468;2022-09-02T22:30:30;96022.56;;;18.95;100.00
37068;BME280;22982;42.848;25.468;2022-09-02T22:40:57;96045.56;;;19.22;100.00
37068;BME280;22982;42.848;25.468;2022-09-02T22:46:12;96012.63;;;18.97;100.00
37068;BME280;22982;42.848;25.468;2022-09-02T22:51:49;96038.22;;;19.16;100.00
37068;BME280;22982;42.848;25.468;2022-09-02T22:57:53;96047.50;;;19.12;100.00
37068;BME280;22982;42.848;25.468;2022-09-02T23:08:06;96070.19;;;19.06;100.00
37068;BME280;22982;42.848;25.468;2022-09-02T23:13:17;96058.50;;;19.17;100.00
37068;BME280;22982;42.848;25.468;2022-09-02T23:18:44;96071.47;;;19.38;100.00
37068;BME280;22982;42.848;25.468;2022-09-02T23:29:29;96081.53;;;19.26;100.00
37068;BME280;22982;42.848;25.468;2022-09-02T23:40:24;96086.88;;;19.17;100.00
37068;BME280;22982;42.848;25.468;2022-09-02T23:45:33;96071.47;;;19.20;100.00
37068;BME280;22982;42.848;25.468;2022-09-02T23:50:43;96080.47;;;19.37;100.00
37068;BME280;22982;42.848;25.468;2022-09-02T23:56:29;96083.25;;;19.36;100.00
